createdAt,value
2023-12-23T00:02:19.232Z,7.47
2023-12-23T00:07:40.731Z,9.53
2023-12-23T00:12:46.117Z,8.67
2023-12-23T00:17:50.981Z,6.53
2023-12-23T00:22:57.581Z,5.43
2023-12-23T00:28:02.786Z,8.57
2023-12-23T00:33:11.616Z,8.03
2023-12-23T00:38:17.972Z,9.20
2023-12-23T00:43:22.820Z,9.27
2023-12-23T00:48:27.012Z,10.93
2023-12-23T00:53:32.683Z,7.70
2023-12-23T00:58:36.908Z,7.13
2023-12-23T01:03:43.956Z,8.70
2023-12-23T01:08:49.908Z,9.77
2023-12-23T01:13:54.307Z,11.63
2023-12-23T01:19:05.135Z,10.07
2023-12-23T01:24:10.904Z,8.03
2023-12-23T01:29:30.000Z,8.57
2023-12-23T01:34:40.768Z,8.53
2023-12-23T01:39:47.015Z,7.27
2023-12-23T01:44:51.429Z,6.80
2023-12-23T01:49:55.473Z,4.23
2023-12-23T01:55:03.702Z,7.57
2023-12-23T02:00:10.336Z,6.50
2023-12-23T02:05:19.365Z,6.47
2023-12-23T02:10:25.696Z,6.90
2023-12-23T02:15:32.065Z,7.13
2023-12-23T02:20:36.470Z,7.50
2023-12-23T02:25:42.610Z,4.97
2023-12-23T02:30:48.622Z,11.43
2023-12-23T02:35:54.479Z,7.07
2023-12-23T02:41:00.118Z,11.90
2023-12-23T02:46:04.739Z,10.83
2023-12-23T02:51:09.017Z,6.67
2023-12-23T02:56:14.942Z,8.67
2023-12-23T03:01:21.808Z,9.87
2023-12-23T03:06:40.842Z,6.77
2023-12-23T03:11:46.303Z,9.67
2023-12-23T03:16:50.732Z,8.40
2023-12-23T03:21:54.691Z,8.93
2023-12-23T03:27:00.424Z,8.30
2023-12-23T03:32:09.578Z,8.60
2023-12-23T03:37:14.145Z,13.23
2023-12-23T03:42:43.935Z,7.73
2023-12-23T03:47:48.362Z,6.60
2023-12-23T03:52:53.592Z,16.00
2023-12-23T03:57:59.351Z,7.07
2023-12-23T04:03:11.628Z,8.70
2023-12-23T04:08:17.999Z,16.23
2023-12-23T04:13:23.765Z,12.10
2023-12-23T04:18:28.098Z,10.70
2023-12-23T04:23:32.769Z,11.67
2023-12-23T04:28:49.082Z,13.40
2023-12-23T04:33:53.809Z,10.30
2023-12-23T04:38:58.516Z,9.33
2023-12-23T04:44:05.025Z,13.73
2023-12-23T04:49:09.289Z,11.20
2023-12-23T04:54:17.791Z,10.53
2023-12-23T04:59:23.908Z,13.83
2023-12-23T05:04:46.246Z,13.50
2023-12-23T05:09:54.827Z,16.57
2023-12-23T05:15:04.112Z,9.50
2023-12-23T05:20:11.026Z,12.50
2023-12-23T05:25:15.657Z,11.30
2023-12-23T05:30:21.540Z,9.80
2023-12-23T05:35:25.952Z,10.37
2023-12-23T05:40:31.226Z,11.80
2023-12-23T05:45:37.358Z,9.93
2023-12-23T05:50:41.747Z,9.47
2023-12-23T05:55:45.729Z,9.30
2023-12-23T06:00:51.929Z,12.30
2023-12-23T06:05:56.577Z,16.50
2023-12-23T06:11:02.427Z,16.37
2023-12-23T06:16:19.435Z,10.20
2023-12-23T06:21:23.592Z,11.33
2023-12-23T06:26:28.118Z,14.27
2023-12-23T06:31:36.542Z,9.77
2023-12-23T06:36:40.387Z,9.87
2023-12-23T06:41:48.146Z,14.20
2023-12-23T06:46:54.145Z,10.13
2023-12-23T06:51:58.300Z,15.83
2023-12-23T06:57:02.499Z,12.97
2023-12-23T07:02:08.024Z,12.53
2023-12-23T07:07:12.556Z,7.63
2023-12-23T07:12:18.126Z,11.67
2023-12-23T07:17:37.909Z,11.63
2023-12-23T07:22:45.661Z,12.10
2023-12-23T07:27:51.462Z,11.35
2023-12-23T07:32:57.662Z,11.83
2023-12-23T07:38:01.901Z,13.00
2023-12-23T07:43:06.109Z,10.47
2023-12-23T07:48:11.652Z,7.67
2023-12-23T07:53:15.844Z,17.30
2023-12-23T07:58:19.811Z,9.43
2023-12-23T08:03:26.539Z,9.23
2023-12-23T08:08:30.943Z,6.80
2023-12-23T08:14:08.188Z,14.00
2023-12-23T08:19:15.850Z,13.10
2023-12-23T08:24:24.229Z,12.90
2023-12-23T08:29:28.802Z,10.00
2023-12-23T08:34:34.196Z,9.30
2023-12-23T08:39:46.014Z,9.93
2023-12-23T08:44:51.005Z,17.10
2023-12-23T08:49:56.568Z,13.40
2023-12-23T08:55:00.489Z,13.80
2023-12-23T09:00:11.861Z,13.60
2023-12-23T09:05:18.820Z,17.67
2023-12-23T09:10:23.925Z,11.43
2023-12-23T09:15:27.903Z,10.63
2023-12-23T09:20:35.873Z,14.70
2023-12-23T09:25:42.259Z,10.90
2023-12-23T09:30:46.660Z,6.80
2023-12-23T09:35:52.413Z,12.73
2023-12-23T09:41:00.229Z,10.00
2023-12-23T09:46:06.901Z,12.07
2023-12-23T09:51:16.183Z,10.47
2023-12-23T09:56:21.507Z,11.60
2023-12-23T10:01:25.912Z,12.53
2023-12-23T10:06:32.575Z,12.70
2023-12-23T10:12:02.207Z,9.70
2023-12-23T10:17:06.633Z,11.77
2023-12-23T10:22:12.054Z,15.07
2023-12-23T10:27:18.343Z,11.87
2023-12-23T10:32:27.737Z,10.90
2023-12-23T10:37:36.600Z,6.40
2023-12-23T10:42:45.245Z,7.47
2023-12-23T10:47:52.683Z,7.83
2023-12-23T10:53:20.213Z,8.17
2023-12-23T10:58:31.071Z,6.67
2023-12-23T11:03:36.852Z,8.40
2023-12-23T11:08:43.582Z,9.40
2023-12-23T11:14:08.408Z,9.20
2023-12-23T11:19:13.376Z,13.73
2023-12-23T11:24:41.789Z,8.35
2023-12-23T11:29:49.904Z,13.27
2023-12-23T11:34:55.860Z,13.20
2023-12-23T11:40:17.763Z,10.03
2023-12-23T11:45:24.488Z,8.40
2023-12-23T11:50:30.665Z,10.57
2023-12-23T11:55:39.289Z,10.03
2023-12-23T12:00:43.777Z,10.70
2023-12-23T12:05:48.233Z,8.83
2023-12-23T12:11:00.762Z,8.20
2023-12-23T12:16:14.627Z,8.37
2023-12-23T12:21:22.851Z,10.60
2023-12-23T12:26:28.808Z,10.27
2023-12-23T12:31:34.432Z,7.00
2023-12-23T12:36:39.690Z,7.23
2023-12-23T12:41:47.308Z,11.77
2023-12-23T12:47:00.241Z,6.00
2023-12-23T12:52:04.867Z,5.43
2023-12-23T12:57:10.452Z,9.88
2023-12-23T13:02:16.562Z,7.20
2023-12-23T13:07:26.909Z,8.07
2023-12-23T13:12:35.042Z,10.17
2023-12-23T13:17:42.964Z,7.30
2023-12-23T13:22:49.020Z,6.20
2023-12-23T13:28:01.613Z,8.30
2023-12-23T13:33:05.880Z,3.45
2023-12-23T13:38:10.496Z,5.13
2023-12-23T13:43:16.303Z,4.95
2023-12-23T13:48:20.080Z,2.67
2023-12-23T13:53:23.945Z,6.35
2023-12-23T13:58:29.059Z,5.13
2023-12-23T14:03:33.048Z,4.57
2023-12-23T14:08:39.889Z,4.03
2023-12-23T14:13:46.594Z,4.63
2023-12-23T14:18:50.480Z,4.10
2023-12-23T14:23:54.590Z,4.53
2023-12-23T14:29:07.351Z,3.93
2023-12-23T14:34:11.358Z,4.93
2023-12-23T14:39:16.098Z,8.17
2023-12-23T14:44:24.527Z,7.40
2023-12-23T14:49:32.317Z,4.37
2023-12-23T14:54:36.092Z,5.32
2023-12-23T14:59:42.264Z,5.40
2023-12-23T15:04:48.074Z,5.40
2023-12-23T15:10:15.539Z,6.77
2023-12-23T15:15:36.788Z,4.13
2023-12-23T15:20:43.731Z,2.57
2023-12-23T15:25:47.478Z,5.83
2023-12-23T15:30:56.394Z,5.07
2023-12-23T15:36:06.112Z,6.13
2023-12-23T15:41:21.654Z,4.00
2023-12-23T15:46:31.276Z,2.53
2023-12-23T15:51:35.281Z,3.97
2023-12-23T15:56:48.042Z,3.83
2023-12-23T16:01:53.332Z,5.50
2023-12-23T16:06:58.444Z,6.27
2023-12-23T16:12:02.501Z,6.93
2023-12-23T16:17:15.723Z,4.23
2023-12-23T16:22:20.627Z,4.10
2023-12-23T16:27:28.132Z,5.20
2023-12-23T16:32:48.084Z,6.82
2023-12-23T16:38:01.841Z,6.97
2023-12-23T16:48:20.125Z,10.67
2023-12-23T16:53:30.342Z,8.47
2023-12-23T16:58:34.939Z,5.93
2023-12-23T17:03:40.726Z,8.63
2023-12-23T17:08:44.705Z,8.17
2023-12-23T17:13:49.709Z,8.33
2023-12-23T17:19:01.649Z,7.17
2023-12-23T17:24:06.995Z,9.30
2023-12-23T17:29:15.945Z,9.40
2023-12-23T17:34:23.220Z,7.93
2023-12-23T17:39:27.972Z,6.93
2023-12-23T17:44:32.066Z,7.77
2023-12-23T17:49:40.056Z,6.87
2023-12-23T17:54:46.039Z,6.93
2023-12-23T17:59:50.602Z,8.57
2023-12-23T18:04:56.666Z,8.73
2023-12-23T18:10:00.739Z,9.60
2023-12-23T18:15:05.003Z,8.07
2023-12-23T18:20:14.106Z,9.10
2023-12-23T18:25:18.598Z,8.97
2023-12-23T18:30:22.686Z,12.00
2023-12-23T18:35:28.820Z,12.23
2023-12-23T18:40:32.816Z,10.83
2023-12-23T18:45:37.523Z,9.43
2023-12-23T18:50:44.056Z,8.93
2023-12-23T18:55:49.209Z,10.40
2023-12-23T19:00:55.456Z,9.50
2023-12-23T19:06:02.585Z,8.07
2023-12-23T19:11:08.098Z,8.33
2023-12-23T19:16:13.320Z,9.77
2023-12-23T19:21:18.810Z,9.57
2023-12-23T19:26:32.007Z,8.35
2023-12-23T19:31:56.525Z,10.33
2023-12-23T19:37:06.577Z,12.07
2023-12-23T19:42:10.749Z,7.43
2023-12-23T19:47:15.035Z,5.20
2023-12-23T19:52:20.709Z,9.90
2023-12-23T19:57:24.880Z,9.93
2023-12-23T20:02:29.387Z,7.07
2023-12-23T20:07:40.388Z,8.03
2023-12-23T20:12:46.040Z,7.30
2023-12-23T20:17:50.596Z,7.43
2023-12-23T20:22:57.464Z,7.97
2023-12-23T20:28:07.618Z,8.07
2023-12-23T20:33:12.464Z,6.47
2023-12-23T20:39:26.245Z,6.57
2023-12-23T20:44:41.747Z,5.97
2023-12-23T20:49:46.125Z,11.90
2023-12-23T20:54:52.003Z,3.43
2023-12-23T20:59:57.978Z,6.30
2023-12-23T21:05:02.826Z,9.17
2023-12-23T21:10:09.919Z,6.97
2023-12-23T21:15:21.556Z,10.23
2023-12-23T21:20:31.355Z,6.00
2023-12-23T21:25:36.936Z,6.13
2023-12-23T21:30:41.702Z,5.97
2023-12-23T21:35:49.666Z,9.03
2023-12-23T21:40:55.825Z,4.93
2023-12-23T21:45:59.938Z,4.30
2023-12-23T21:51:04.069Z,5.33
2023-12-23T21:56:30.578Z,5.90
2023-12-23T22:01:36.074Z,6.17
2023-12-23T22:06:42.852Z,7.83
2023-12-23T22:11:48.042Z,5.63
2023-12-23T22:17:02.016Z,5.97
2023-12-23T22:22:07.366Z,5.30
2023-12-23T22:27:13.251Z,4.53
2023-12-23T22:32:17.550Z,6.37
2023-12-23T22:37:22.036Z,5.13
2023-12-23T22:42:28.279Z,3.43
2023-12-23T22:47:38.470Z,5.22
2023-12-23T22:52:43.757Z,4.83
2023-12-23T22:57:49.327Z,6.18
2023-12-23T23:02:54.253Z,6.53
2023-12-23T23:08:01.673Z,4.90
2023-12-23T23:13:07.911Z,5.63
2023-12-23T23:18:28.391Z,5.27
2023-12-23T23:23:32.536Z,6.50
2023-12-23T23:34:09.102Z,5.27
2023-12-23T23:39:22.828Z,4.97
2023-12-23T23:44:28.191Z,5.65
2023-12-23T23:49:33.259Z,5.07
2023-12-23T23:54:37.287Z,5.50
2023-12-23T23:59:42.853Z,8.70
